Time;durP1;ratioP1;P1;durP2;ratioP2;P2;SDS_P1;SDS_P2;PMS_P1;PMS_P2;Temp;Humidity;BMP_temperature;BMP_pressure;BME280_temperature;BME280_humidity;BME280_pressure;Samples;Min_cycle;Max_cycle;Signal;HPM_P1;HPM_P2
2024/03/28 00:01:28;;;;;;;18.90;9.90;;;;;;;10.58;69.29;98521.14;105552;1260;97999;-79
2024/03/28 00:04:13;;;;;;;12.50;8.30;;;;;;;10.55;69.31;98513.91;105534;1266;97941;-79
2024/03/28 00:06:59;;;;;;;16.00;8.70;;;;;;;10.53;69.41;98511.52;106346;1265;101333;-80
2024/03/28 00:09:45;;;;;;;15.00;8.70;;;;;;;10.51;69.43;98507.52;105610;1267;99807;-78
2024/03/28 00:12:31;;;;;;;16.70;7.80;;;;;;;10.49;69.07;98506.04;105613;1265;98004;-79
2024/03/28 00:15:17;;;;;;;14.30;8.60;;;;;;;10.48;69.17;98497.00;105602;1274;97989;-78
2024/03/28 00:18:02;;;;;;;18.80;8.90;;;;;;;10.47;69.46;98492.40;105626;1266;97890;-78
2024/03/28 00:20:56;;;;;;;18.30;8.80;;;;;;;10.45;69.52;98490.58;105981;1266;102793;-79
2024/03/28 00:23:42;;;;;;;13.30;7.90;;;;;;;10.44;69.49;98488.34;107755;1260;99988;-79
2024/03/28 00:26:28;;;;;;;13.90;8.10;;;;;;;10.41;69.43;98492.81;106626;1261;98830;-79
2024/03/28 00:29:13;;;;;;;20.80;9.50;;;;;;;10.40;69.59;98501.02;106538;1264;96237;-79
2024/03/28 00:31:59;;;;;;;18.00;8.80;;;;;;;10.39;69.54;98503.84;106427;1261;96200;-78
2024/03/28 00:34:44;;;;;;;18.80;9.10;;;;;;;10.39;69.50;98507.10;106267;1265;102627;-79
2024/03/28 00:37:30;;;;;;;17.70;8.70;;;;;;;10.38;69.43;98501.73;106187;1261;99066;-79
2024/03/28 00:40:15;;;;;;;17.30;8.80;;;;;;;10.37;69.80;98499.45;105846;1267;97847;-79
2024/03/28 00:43:01;;;;;;;17.70;8.80;;;;;;;10.37;69.76;98493.14;105435;1266;97971;-80
2024/03/28 00:45:47;;;;;;;16.60;9.50;;;;;;;10.37;69.97;98495.08;105926;1267;99555;-81
2024/03/28 00:48:33;;;;;;;17.70;9.70;;;;;;;10.37;70.07;98486.77;106069;1261;110540;-81
2024/03/28 00:51:18;;;;;;;18.30;9.10;;;;;;;10.35;69.95;98487.70;106047;1266;99176;-81
2024/03/28 00:54:04;;;;;;;17.40;8.90;;;;;;;10.32;69.80;98486.30;106167;1267;99001;-82
2024/03/28 00:56:49;;;;;;;22.10;9.10;;;;;;;10.28;70.02;98481.55;106132;1261;96998;-81
2024/03/28 00:59:35;;;;;;;14.80;8.00;;;;;;;10.27;70.01;98480.84;105781;1261;98495;-80
2024/03/28 01:02:20;;;;;;;16.20;8.80;;;;;;;10.26;70.00;98478.71;105809;1266;101340;-80
2024/03/28 01:05:06;;;;;;;16.50;8.60;;;;;;;10.24;70.21;98470.97;106358;1265;100028;-80
2024/03/28 01:07:52;;;;;;;17.60;8.00;;;;;;;10.23;70.08;98465.71;106407;1266;98489;-80
2024/03/28 01:10:38;;;;;;;22.00;9.50;;;;;;;10.21;70.37;98465.30;105489;1275;98039;-80
2024/03/28 01:13:23;;;;;;;19.70;9.70;;;;;;;10.20;70.14;98463.57;105633;1261;97904;-80
2024/03/28 01:16:08;;;;;;;17.10;8.80;;;;;;;10.17;70.34;98465.55;105805;1261;101354;-79
2024/03/28 01:18:54;;;;;;;15.00;8.10;;;;;;;10.16;70.63;98469.20;105829;1260;99138;-79
2024/03/28 01:21:39;;;;;;;17.80;8.40;;;;;;;10.15;70.62;98463.14;105905;1267;99261;-79
2024/03/28 01:24:25;;;;;;;13.90;8.60;;;;;;;10.14;70.77;98460.97;105919;1260;97881;-80
2024/03/28 01:27:10;;;;;;;11.80;7.80;;;;;;;10.13;70.69;98459.79;105829;1264;98561;-81
2024/03/28 01:29:56;;;;;;;18.60;8.50;;;;;;;10.12;70.73;98459.93;105945;1267;103657;-79
2024/03/28 01:32:43;;;;;;;15.00;8.10;;;;;;;10.08;70.76;98455.48;105944;1261;100350;-79
2024/03/28 01:35:28;;;;;;;14.20;8.20;;;;;;;10.06;70.94;98457.63;106497;1263;97761;-80
2024/03/28 01:38:14;;;;;;;17.30;7.60;;;;;;;10.05;71.08;98458.02;106443;1265;97847;-80
2024/03/28 01:40:59;;;;;;;15.10;8.90;;;;;;;10.03;71.14;98458.80;106432;1264;97978;-80
2024/03/28 01:43:45;;;;;;;17.10;9.30;;;;;;;10.02;71.28;98456.30;106466;1260;102631;-80
2024/03/28 01:46:31;;;;;;;17.40;9.20;;;;;;;10.01;71.34;98453.35;106414;1265;99116;-80
2024/03/28 01:49:17;;;;;;;15.80;9.50;;;;;;;9.99;71.27;98451.76;106540;1261;98012;-81
2024/03/28 01:52:04;;;;;;;14.70;8.80;;;;;;;9.98;71.50;98449.96;106392;1260;97987;-81
2024/03/28 01:54:51;;;;;;;18.60;10.30;;;;;;;9.98;71.59;98442.65;106524;1267;99633;-81
2024/03/28 01:57:36;;;;;;;18.00;9.50;;;;;;;9.97;71.62;98436.36;106394;1260;101916;-80
2024/03/28 02:00:22;;;;;;;20.90;10.00;;;;;;;9.96;71.74;98434.95;106486;1260;99202;-80
2024/03/28 02:03:07;;;;;;;17.40;10.00;;;;;;;9.95;71.84;98434.34;106444;1264;97901;-81
2024/03/28 02:05:53;;;;;;;17.60;10.90;;;;;;;9.94;71.94;98435.38;106466;1261;97871;-81
2024/03/28 02:08:39;;;;;;;18.20;10.10;;;;;;;9.94;72.23;98435.27;106439;1264;96036;-79
2024/03/28 02:11:26;;;;;;;19.80;10.70;;;;;;;9.91;72.25;98435.69;106309;1265;102536;-79
2024/03/28 02:14:12;;;;;;;16.80;10.00;;;;;;;9.91;72.14;98432.20;106290;1265;101195;-79
2024/03/28 02:17:05;;;;;;;16.20;9.70;;;;;;;9.92;72.53;98429.50;105709;1267;98457;-80
2024/03/28 02:19:51;;;;;;;19.90;8.90;;;;;;;9.91;72.58;98427.79;106763;1262;97958;-82
2024/03/28 02:22:36;;;;;;;15.60;8.70;;;;;;;9.91;72.60;98428.20;106646;1261;97779;-82
2024/03/28 02:25:21;;;;;;;14.50;7.90;;;;;;;9.92;72.65;98425.44;106451;1260;101347;-80
2024/03/28 02:28:07;;;;;;;18.20;8.60;;;;;;;9.92;72.97;98424.65;106688;1267;100489;-80
2024/03/28 02:30:53;;;;;;;14.30;8.00;;;;;;;9.93;73.19;98424.67;106514;1260;98848;-81
2024/03/28 02:33:38;;;;;;;11.00;7.20;;;;;;;9.95;73.00;98424.27;106485;1261;96218;-82
2024/03/28 02:36:24;;;;;;;13.60;7.80;;;;;;;9.96;72.97;98425.42;106654;1261;97829;-81
2024/03/28 02:39:10;;;;;;;14.20;7.90;;;;;;;9.98;73.08;98418.89;106478;1264;101344;-80
2024/03/28 02:41:56;;;;;;;10.80;6.70;;;;;;;9.99;73.26;98411.77;106074;1266;99123;-78
2024/03/28 02:44:41;;;;;;;13.40;7.60;;;;;;;10.01;73.54;98405.80;105327;1273;99653;-78
2024/03/28 02:47:27;;;;;;;13.80;7.80;;;;;;;10.03;73.39;98394.06;105843;1260;98493;-79
2024/03/28 02:50:12;;;;;;;14.90;7.60;;;;;;;10.04;73.36;98392.86;105738;1261;98537;-78
2024/03/28 02:52:58;;;;;;;14.20;6.50;;;;;;;10.05;73.56;98390.89;105606;1260;102654;-78
2024/03/28 02:55:49;;;;;;;12.80;7.30;;;;;;;10.07;73.48;98380.83;105619;1266;99165;-79
2024/03/28 02:58:34;;;;;;;15.70;7.10;;;;;;;10.09;73.75;98380.13;105569;1267;98548;-79
2024/03/28 03:01:19;;;;;;;12.00;7.80;;;;;;;10.11;73.61;98378.25;105464;1267;97964;-79
2024/03/28 03:04:05;;;;;;;13.20;6.60;;;;;;;10.13;73.64;98381.15;105653;1265;99146;-80
2024/03/28 03:06:50;;;;;;;11.40;6.70;;;;;;;10.15;73.67;98385.88;105697;1265;102560;-79
2024/03/28 03:09:37;;;;;;;10.30;6.30;;;;;;;10.16;73.60;98384.66;105732;1265;101644;-80
2024/03/28 03:12:22;;;;;;;11.00;7.10;;;;;;;10.17;73.68;98384.69;105586;1266;99599;-78
2024/03/28 03:15:12;;;;;;;11.90;7.00;;;;;;;10.18;73.82;98381.83;105588;1267;98743;-78
2024/03/28 03:17:58;;;;;;;11.70;6.80;;;;;;;10.18;73.80;98384.66;105552;1265;97984;-79
2024/03/28 03:20:49;;;;;;;10.60;7.10;;;;;;;10.21;74.01;98385.67;106789;1261;101472;-80
2024/03/28 03:23:37;;;;;;;14.00;7.50;;;;;;;10.23;74.07;98380.36;106316;1260;99120;-81
2024/03/28 03:26:25;;;;;;;12.70;7.30;;;;;;;10.23;74.28;98367.84;106507;1261;97907;-80
2024/03/28 03:35:20;;;;;;;12.20;7.00;;;;;;;10.24;74.34;98358.39;106670;1260;101381;-80
2024/03/28 03:38:06;;;;;;;14.40;7.20;;;;;;;10.24;74.22;98355.63;106478;1265;100858;-78
2024/03/28 03:40:51;;;;;;;14.20;7.60;;;;;;;10.25;74.34;98350.70;106585;1260;99298;-80
2024/03/28 03:43:37;;;;;;;11.20;7.30;;;;;;;10.26;74.55;98351.85;106541;1265;97971;-80
2024/03/28 03:46:22;;;;;;;14.10;7.80;;;;;;;10.27;74.88;98350.09;106378;1261;97799;-80
2024/03/28 03:49:08;;;;;;;12.50;7.40;;;;;;;10.28;74.91;98343.21;106475;1261;102622;-81
2024/03/28 03:51:53;;;;;;;15.20;7.50;;;;;;;10.28;74.92;98343.13;106506;1260;99137;-79
2024/03/28 03:54:40;;;;;;;13.60;7.30;;;;;;;10.29;75.15;98345.69;106421;1260;158698;-80
2024/03/28 03:57:25;;;;;;;15.50;7.80;;;;;;;10.29;75.33;98340.29;106379;1260;97970;-80
2024/03/28 04:00:11;;;;;;;12.30;7.10;;;;;;;10.30;75.57;98339.98;106222;1260;98592;-80
2024/03/28 04:02:57;;;;;;;11.60;7.50;;;;;;;10.30;75.57;98332.13;105583;1261;101505;-79
2024/03/28 04:05:43;;;;;;;11.80;7.20;;;;;;;10.31;75.52;98330.70;105670;1261;99145;-80
2024/03/28 04:08:28;;;;;;;19.90;7.60;;;;;;;10.31;75.54;98331.94;105673;1262;97985;-79
2024/03/28 04:11:14;;;;;;;12.40;7.20;;;;;;;10.31;75.76;98328.41;105694;1261;97948;-80
2024/03/28 04:14:00;;;;;;;11.60;6.70;;;;;;;10.31;75.87;98323.54;106296;1265;99582;-81
2024/03/28 04:16:46;;;;;;;15.10;7.50;;;;;;;10.32;75.99;98314.30;106419;1260;101404;-80
2024/03/28 04:19:31;;;;;;;13.20;7.30;;;;;;;10.34;75.77;98310.95;106277;1260;100156;-80
2024/03/28 04:22:17;;;;;;;14.10;7.50;;;;;;;10.35;75.89;98317.98;105679;1260;97855;-80
2024/03/28 04:25:03;;;;;;;13.40;7.20;;;;;;;10.35;75.82;98315.04;106258;1266;98760;-79
2024/03/28 04:27:49;;;;;;;13.60;7.50;;;;;;;10.37;75.81;98310.20;106355;1261;97820;-79
2024/03/28 04:30:36;;;;;;;13.20;7.00;;;;;;;10.39;75.88;98304.82;106364;1265;101468;-80
2024/03/28 04:33:21;;;;;;;14.40;8.10;;;;;;;10.41;76.16;98301.12;105643;1265;99175;-79
2024/03/28 04:36:07;;;;;;;13.50;7.80;;;;;;;10.43;76.05;98297.20;105821;1265;97894;-79
2024/03/28 04:38:52;;;;;;;15.00;7.60;;;;;;;10.45;76.25;98296.77;105536;1261;98026;-79
2024/03/28 04:41:38;;;;;;;19.20;12.30;;;;;;;10.47;76.25;98302.35;105752;1264;98429;-80
2024/03/28 04:44:23;;;;;;;11.30;7.40;;;;;;;10.48;76.24;98302.84;105528;1260;102034;-79
2024/03/28 04:47:09;;;;;;;13.80;8.00;;;;;;;10.49;76.23;98293.89;105531;1262;100433;-79
2024/03/28 04:49:54;;;;;;;11.20;7.40;;;;;;;10.51;76.23;98288.40;105639;1260;98162;-79
2024/03/28 04:52:40;;;;;;;12.40;7.40;;;;;;;10.53;76.42;98283.17;105708;1265;97969;-79
2024/03/28 04:55:25;;;;;;;16.60;8.20;;;;;;;10.55;76.27;98276.79;105742;1260;98055;-79
2024/03/28 04:58:11;;;;;;;17.50;9.00;;;;;;;10.57;76.47;98274.14;105734;1260;102159;-79
2024/03/28 05:00:56;;;;;;;12.50;8.00;;;;;;;10.59;76.50;98271.33;105723;1260;99551;-79
2024/03/28 05:03:42;;;;;;;13.10;7.70;;;;;;;10.60;76.52;98263.39;105622;1265;97790;-79
2024/03/28 05:06:28;;;;;;;16.60;9.90;;;;;;;10.62;76.70;98252.59;105774;1260;96011;-80
2024/03/28 05:09:13;;;;;;;16.10;9.90;;;;;;;10.62;76.72;98245.86;105699;1262;98048;-80
2024/03/28 05:11:59;;;;;;;15.30;7.70;;;;;;;10.64;76.70;98249.04;105605;1262;101353;-79
2024/03/28 05:14:44;;;;;;;18.00;9.80;;;;;;;10.65;76.89;98251.20;105696;1262;99153;-79
2024/03/28 05:17:30;;;;;;;15.60;7.70;;;;;;;10.66;77.13;98254.81;105553;1266;99042;-79
2024/03/28 05:20:18;;;;;;;14.90;8.20;;;;;;;10.67;77.22;98255.09;105672;1264;97975;-80
2024/03/28 05:23:03;;;;;;;14.00;8.20;;;;;;;10.69;77.63;98261.55;105573;1261;98506;-79
2024/03/28 05:25:49;;;;;;;12.50;7.60;;;;;;;10.71;78.30;98263.45;105675;1260;102587;-79
2024/03/28 05:28:36;;;;;;;21.40;8.90;;;;;;;10.71;78.66;98261.58;106075;1262;100093;-80
2024/03/28 05:31:22;;;;;;;16.10;8.40;;;;;;;10.72;79.11;98270.21;106104;1260;98026;-79
2024/03/28 05:34:08;;;;;;;12.20;7.40;;;;;;;10.72;79.38;98272.73;105741;1260;97978;-80
2024/03/28 05:36:53;;;;;;;15.20;8.00;;;;;;;10.74;79.55;98261.73;106529;1264;97916;-80
2024/03/28 05:39:39;;;;;;;14.30;8.30;;;;;;;10.75;79.54;98255.64;106639;1264;101467;-80
2024/03/28 05:42:24;;;;;;;15.50;7.00;;;;;;;10.77;79.26;98254.51;106480;1260;99088;-80
2024/03/28 05:45:12;;;;;;;15.40;7.50;;;;;;;10.80;79.20;98256.91;106369;1260;97969;-78
2024/03/28 05:47:58;;;;;;;14.40;7.90;;;;;;;10.82;78.94;98252.38;105686;1265;98083;-78
2024/03/28 05:50:43;;;;;;;18.20;8.30;;;;;;;10.85;78.98;98254.90;105526;1265;98724;-78
2024/03/28 05:53:28;;;;;;;14.70;7.70;;;;;;;10.88;78.94;98254.23;105800;1267;109587;-79
2024/03/28 05:56:20;;;;;;;15.70;7.80;;;;;;;10.91;79.03;98253.96;105771;1265;99108;-78
2024/03/28 05:59:06;;;;;;;12.80;7.60;;;;;;;10.94;79.05;98251.12;105486;1262;98023;-81
2024/03/28 06:01:53;;;;;;;19.70;8.60;;;;;;;11.00;79.21;98250.44;106076;1260;98090;-79
2024/03/28 06:04:39;;;;;;;12.40;7.40;;;;;;;11.05;79.35;98249.39;105591;1260;97889;-79
2024/03/28 06:07:24;;;;;;;18.80;9.40;;;;;;;11.11;79.18;98248.94;105611;1265;110343;-79
2024/03/28 06:10:09;;;;;;;18.80;8.60;;;;;;;11.16;79.31;98244.52;105843;1262;99132;-80
2024/03/28 06:12:56;;;;;;;19.10;8.80;;;;;;;11.22;79.53;98238.70;106136;1260;99900;-79
2024/03/28 06:15:41;;;;;;;23.50;8.90;;;;;;;11.29;79.70;98231.17;105210;1265;97946;-79
2024/03/28 06:18:28;;;;;;;15.70;8.20;;;;;;;11.36;79.64;98231.06;105636;1261;97851;-79
2024/03/28 06:21:13;;;;;;;17.50;8.80;;;;;;;11.42;79.52;98230.91;105748;1267;102679;-79
2024/03/28 06:23:58;;;;;;;13.90;8.70;;;;;;;11.47;79.50;98220.58;105587;1264;108240;-78
2024/03/28 06:26:47;;;;;;;17.30;8.50;;;;;;;11.52;79.34;98220.74;105599;1264;99902;-79
2024/03/28 06:29:39;;;;;;;18.70;8.70;;;;;;;11.57;79.25;98216.57;105598;1261;99142;-87
2024/03/28 06:32:24;;;;;;;25.00;8.20;;;;;;;11.64;79.19;98211.92;105593;1265;98062;-82
2024/03/28 06:35:10;;;;;;;22.90;9.10;;;;;;;11.71;79.47;98205.91;105666;1264;102741;-83
2024/03/28 06:37:56;;;;;;;14.90;8.00;;;;;;;11.79;79.62;98208.41;105862;1262;99205;-84
2024/03/28 06:40:42;;;;;;;22.50;9.00;;;;;;;11.87;79.52;98213.23;105641;1265;97988;-83
2024/03/28 06:43:28;;;;;;;14.30;8.20;;;;;;;11.94;79.59;98210.77;105646;1260;97981;-85
2024/03/28 06:46:14;;;;;;;16.60;7.70;;;;;;;11.99;79.03;98213.19;105564;1262;97043;-81
2024/03/28 06:49:00;;;;;;;22.00;7.90;;;;;;;12.07;78.92;98213.86;105837;1261;101788;-80
2024/03/28 06:51:45;;;;;;;16.80;7.10;;;;;;;12.18;79.25;98214.45;105752;1265;100374;-84
2024/03/28 06:54:31;;;;;;;18.20;7.30;;;;;;;12.30;79.09;98213.20;105531;1260;99365;-84
2024/03/28 06:57:17;;;;;;;18.90;8.30;;;;;;;12.43;78.77;98216.69;105553;1265;98836;-84
2024/03/28 07:00:09;;;;;;;16.70;8.20;;;;;;;12.58;78.86;98220.04;105751;1260;98446;-88
2024/03/28 07:02:56;;;;;;;16.40;8.40;;;;;;;12.69;78.33;98221.79;106110;1262;101380;-88
2024/03/28 07:05:41;;;;;;;19.20;8.40;;;;;;;12.76;77.92;98223.92;105753;1261;98965;-88
2024/03/28 07:08:28;;;;;;;16.20;7.60;;;;;;;12.80;77.75;98221.17;106187;1260;99005;-87
2024/03/28 07:11:15;;;;;;;26.80;7.70;;;;;;;12.85;77.50;98218.89;106492;1259;97876;-89
2024/03/28 07:14:02;;;;;;;24.40;7.90;;;;;;;12.90;77.54;98220.80;106315;1262;96551;-90
2024/03/28 07:16:48;;;;;;;25.10;8.20;;;;;;;12.94;77.52;98223.58;105656;1265;102645;-83
2024/03/28 07:19:35;;;;;;;16.30;7.40;;;;;;;12.97;77.09;98217.09;105677;1266;99214;-85
2024/03/28 07:22:22;;;;;;;18.50;7.50;;;;;;;12.99;76.94;98214.36;105557;1267;99492;-86
2024/03/28 07:25:08;;;;;;;15.60;7.30;;;;;;;13.02;77.13;98212.44;105696;1261;98089;-87
2024/03/28 07:27:58;;;;;;;19.10;6.90;;;;;;;13.05;77.03;98215.55;106241;1262;97985;-84
2024/03/28 07:30:43;;;;;;;22.80;7.90;;;;;;;13.07;77.07;98212.61;106079;1265;101389;-84
2024/03/28 07:33:29;;;;;;;18.30;8.80;;;;;;;13.11;76.99;98218.38;105779;1266;99378;-86
2024/03/28 07:36:39;;;;;;;16.60;8.30;;;;;;;13.15;77.05;98223.13;105709;1260;99125;-84
2024/03/28 07:39:33;;;;;;;18.70;6.90;;;;;;;13.18;76.71;98229.64;106032;1261;97986;-84
2024/03/28 07:42:19;;;;;;;22.80;8.00;;;;;;;13.20;76.79;98234.60;105531;1260;98569;-84
2024/03/28 07:45:06;;;;;;;23.80;7.80;;;;;;;13.22;76.74;98235.70;105760;1259;101500;-90
2024/03/28 07:47:57;;;;;;;19.00;7.00;;;;;;;13.24;76.65;98235.16;105977;1259;101457;-81
2024/03/28 07:50:55;;;;;;;20.30;7.00;;;;;;;13.27;76.79;98234.59;105950;1262;98706;-82
2024/03/28 07:54:16;;;;;;;16.70;7.00;;;;;;;13.29;76.50;98239.71;107426;1261;98086;-83
2024/03/28 07:57:13;;;;;;;18.00;7.00;;;;;;;13.30;76.78;98243.64;105575;1260;97912;-84
2024/03/28 08:00:00;;;;;;;22.70;8.40;;;;;;;13.32;76.81;98242.96;105542;1260;102541;-83
2024/03/28 08:02:46;;;;;;;21.10;8.50;;;;;;;13.33;76.85;98241.30;106048;1266;99327;-84
2024/03/28 08:05:53;;;;;;;23.00;7.90;;;;;;;13.34;76.22;98241.31;106230;1265;97988;-81
2024/03/28 08:09:02;;;;;;;20.50;7.40;;;;;;;13.34;76.45;98236.31;106072;1260;99024;-80
2024/03/28 08:11:48;;;;;;;22.60;8.20;;;;;;;13.35;76.60;98235.45;105453;1262;97998;-88
2024/03/28 08:14:35;;;;;;;19.00;7.90;;;;;;;13.37;76.35;98235.77;105722;1261;102920;-84
2024/03/28 08:17:21;;;;;;;25.30;8.10;;;;;;;13.41;76.76;98232.30;105847;1262;101307;-83
2024/03/28 08:20:15;;;;;;;20.20;7.50;;;;;;;13.45;76.73;98234.36;105587;1260;97884;-82
2024/03/28 08:23:01;;;;;;;23.40;9.10;;;;;;;13.50;76.72;98238.36;105707;1267;99211;-83
2024/03/28 08:25:47;;;;;;;25.80;8.50;;;;;;;13.57;77.02;98235.71;106481;1260;97723;-87
2024/03/28 08:28:33;;;;;;;23.60;8.60;;;;;;;13.68;77.18;98238.17;105909;1261;101394;-82
2024/03/28 08:31:21;;;;;;;21.90;7.20;;;;;;;13.81;77.50;98236.54;105911;1264;99117;-88
2024/03/28 08:34:06;;;;;;;30.90;8.80;;;;;;;13.91;77.26;98235.77;105850;1262;98366;-79
2024/03/28 08:36:52;;;;;;;24.00;8.20;;;;;;;14.01;76.73;98237.56;105405;1264;97796;-79
2024/03/28 08:39:37;;;;;;;23.40;7.80;;;;;;;14.11;77.00;98234.63;105462;1264;97867;-78
2024/03/28 08:42:23;;;;;;;26.20;8.10;;;;;;;14.22;77.14;98226.13;105325;1261;101553;-79
2024/03/28 08:45:11;;;;;;;25.20;7.70;;;;;;;14.33;77.11;98221.70;105529;1265;99683;-78
2024/03/28 08:47:57;;;;;;;30.20;8.50;;;;;;;14.43;77.43;98218.75;105597;1261;99233;-79
2024/03/28 08:50:44;;;;;;;25.80;7.80;;;;;;;14.53;76.97;98217.08;105747;1260;97968;-77
2024/03/28 08:53:29;;;;;;;33.40;8.00;;;;;;;14.61;76.47;98218.38;105389;1261;98594;-77
2024/03/28 08:56:15;;;;;;;28.60;8.00;;;;;;;14.72;76.55;98213.47;105347;1259;103196;-78
2024/03/28 08:59:04;;;;;;;25.50;7.90;;;;;;;14.84;76.89;98204.70;105522;1259;101481;-77
2024/03/28 09:01:50;;;;;;;29.40;9.00;;;;;;;14.95;76.79;98200.65;105380;1260;99298;-77
2024/03/28 09:04:36;;;;;;;29.10;7.60;;;;;;;15.09;76.50;98206.55;105397;1264;97978;-78
2024/03/28 09:07:22;;;;;;;35.70;9.10;;;;;;;15.20;76.13;98208.67;105438;1260;98429;-77
2024/03/28 09:10:09;;;;;;;42.40;9.10;;;;;;;15.30;75.95;98209.67;105419;1259;102614;-77
2024/03/28 09:12:55;;;;;;;25.60;8.20;;;;;;;15.40;76.33;98216.27;105476;1264;99119;-77
2024/03/28 09:15:41;;;;;;;40.00;9.70;;;;;;;15.53;76.83;98218.36;105413;1265;98996;-78
2024/03/28 09:18:27;;;;;;;30.40;9.50;;;;;;;15.64;76.17;98218.16;105413;1259;97978;-77
2024/03/28 09:21:12;;;;;;;34.90;9.70;;;;;;;15.66;75.45;98214.09;105426;1261;97994;-79
2024/03/28 09:23:58;;;;;;;27.70;8.50;;;;;;;15.66;75.29;98213.88;105299;1260;102080;-77
2024/03/28 09:26:44;;;;;;;34.50;9.00;;;;;;;15.66;74.57;98211.61;105169;1265;99109;-77
2024/03/28 09:29:30;;;;;;;32.80;10.30;;;;;;;15.65;74.65;98212.64;105341;1265;99459;-77
2024/03/28 09:32:15;;;;;;;27.30;9.70;;;;;;;15.67;74.70;98206.90;104815;1264;98008;-77
2024/03/28 09:35:00;;;;;;;28.70;8.10;;;;;;;15.72;74.57;98195.44;105252;1264;97996;-78
2024/03/28 09:37:46;;;;;;;35.40;8.70;;;;;;;15.81;74.50;98193.17;105443;1264;101373;-77
2024/03/28 09:40:44;;;;;;;23.70;7.40;;;;;;;15.89;74.42;98198.15;105276;1267;99077;-77
2024/03/28 09:43:29;;;;;;;29.40;8.10;;;;;;;15.97;74.43;98200.27;105367;1260;98997;-78
2024/03/28 09:46:17;;;;;;;28.90;9.90;;;;;;;16.04;74.49;98203.51;105505;1263;98045;-78
2024/03/28 09:49:06;;;;;;;33.50;9.50;;;;;;;16.08;74.19;98204.73;105300;1264;100871;-78
2024/03/28 09:51:55;;;;;;;26.00;9.90;;;;;;;16.10;74.59;98200.88;106933;1262;101336;-77
2024/03/28 09:54:44;;;;;;;31.90;9.00;;;;;;;16.14;74.30;98195.83;104850;1264;109578;-79
2024/03/28 09:57:29;;;;;;;39.90;9.00;;;;;;;16.17;74.05;98201.05;104909;1261;98943;-77
2024/03/28 10:00:15;;;;;;;38.90;9.30;;;;;;;16.19;73.74;98198.27;104845;1265;98056;-76
2024/03/28 10:03:08;;;;;;;30.80;8.40;;;;;;;16.22;74.08;98199.23;105264;1261;98439;-77
2024/03/28 10:05:53;;;;;;;35.50;8.60;;;;;;;16.23;74.24;98202.31;105275;1262;102720;-77
2024/03/28 10:08:40;;;;;;;40.00;8.90;;;;;;;16.22;73.64;98197.84;105267;1265;99841;-77
2024/03/28 10:11:26;;;;;;;30.30;9.00;;;;;;;16.17;73.52;98202.02;105359;1259;99082;-78
2024/03/28 10:14:16;;;;;;;32.70;10.00;;;;;;;16.11;73.39;98199.52;105248;1264;97918;-77
2024/03/28 10:17:02;;;;;;;40.10;9.70;;;;;;;16.05;73.34;98193.83;105266;1266;97969;-77
2024/03/28 10:20:07;;;;;;;37.70;8.90;;;;;;;16.00;73.53;98195.05;105376;1262;102647;-77
2024/03/28 10:22:53;;;;;;;41.40;9.10;;;;;;;15.94;73.55;98198.98;105330;1264;99791;-77
2024/03/28 10:25:39;;;;;;;41.90;11.50;;;;;;;15.91;73.97;98201.43;105320;1265;97888;-78
2024/03/28 10:28:31;;;;;;;35.60;9.20;;;;;;;15.87;74.02;98199.94;105008;1265;99278;-76
2024/03/28 10:31:23;;;;;;;45.70;10.60;;;;;;;15.83;74.25;98201.48;104843;1260;98138;-78
2024/03/28 10:34:14;;;;;;;34.10;9.50;;;;;;;15.80;74.52;98200.95;104803;1259;101509;-77
2024/03/28 10:37:03;;;;;;;42.20;9.90;;;;;;;15.77;74.89;98205.66;104942;1264;100366;-76
2024/03/28 10:39:49;;;;;;;36.60;8.40;;;;;;;15.75;75.04;98204.71;104884;1265;97998;-77
2024/03/28 10:42:38;;;;;;;40.70;9.20;;;;;;;15.74;74.90;98201.52;104889;1261;97975;-77
2024/03/28 10:45:27;;;;;;;42.60;8.30;;;;;;;15.77;74.97;98200.16;104902;1264;98507;-77
2024/03/28 10:48:16;;;;;;;44.40;9.40;;;;;;;15.82;75.18;98195.02;104871;1264;101332;-76
2024/03/28 10:51:01;;;;;;;35.90;9.70;;;;;;;15.91;75.41;98189.83;104873;1265;100000;-77
2024/03/28 10:54:11;;;;;;;45.00;9.10;;;;;;;16.01;75.02;98184.09;104941;1264;98067;-77
2024/03/28 10:56:57;;;;;;;46.50;9.10;;;;;;;16.11;74.88;98175.77;104898;1265;97987;-77
2024/03/28 10:59:43;;;;;;;37.80;7.90;;;;;;;16.18;74.77;98166.36;104937;1265;98497;-77
2024/03/28 11:02:32;;;;;;;41.00;10.40;;;;;;;16.25;74.33;98165.34;104756;1265;102246;-76
2024/03/28 11:05:18;;;;;;;33.00;8.50;;;;;;;16.27;74.13;98170.66;105068;1260;100386;-78
2024/03/28 11:08:07;;;;;;;41.10;9.70;;;;;;;16.28;73.61;98176.81;105425;1259;98464;-77
2024/03/28 11:10:55;;;;;;;40.20;8.00;;;;;;;16.28;73.25;98183.47;105084;1261;97947;-77
2024/03/28 11:13:41;;;;;;;31.00;7.80;;;;;;;16.27;73.49;98179.32;105388;1264;97895;-77
2024/03/28 11:16:26;;;;;;;34.50;8.50;;;;;;;16.28;73.44;98181.91;105237;1264;101382;-78
2024/03/28 11:19:16;;;;;;;46.40;9.20;;;;;;;16.28;73.84;98185.30;105134;1265;99128;-78
2024/03/28 11:22:02;;;;;;;35.90;8.60;;;;;;;16.28;73.52;98189.40;105516;1262;97981;-79
2024/03/28 11:24:47;;;;;;;38.90;8.70;;;;;;;16.28;73.17;98193.95;105679;1266;98482;-77
2024/03/28 11:27:33;;;;;;;34.50;10.10;;;;;;;16.27;73.32;98197.10;105196;1265;97979;-77
2024/03/28 11:30:19;;;;;;;38.10;9.50;;;;;;;16.23;73.13;98199.23;105239;1262;102594;-77
2024/03/28 11:33:10;;;;;;;31.20;8.30;;;;;;;16.18;73.05;98198.63;104848;1265;100589;-77
2024/03/28 11:36:00;;;;;;;36.60;8.60;;;;;;;16.13;72.87;98209.17;105270;1261;98954;-78
2024/03/28 11:38:45;;;;;;;31.30;8.50;;;;;;;16.09;72.75;98212.88;105430;1265;97988;-78
2024/03/28 11:41:31;;;;;;;33.50;7.90;;;;;;;16.07;73.48;98215.27;105365;1264;98411;-82
2024/03/28 11:44:19;;;;;;;32.20;8.10;;;;;;;16.06;73.47;98218.19;106336;1262;102589;-87
2024/03/28 11:47:08;;;;;;;30.10;8.70;;;;;;;16.04;73.26;98218.75;106194;1262;100219;-80
2024/03/28 11:50:04;;;;;;;30.00;8.50;;;;;;;16.03;73.57;98221.02;105859;1263;98676;-88
2024/03/28 11:52:50;;;;;;;28.50;9.30;;;;;;;16.02;73.22;98225.20;106093;1260;98242;-80
2024/03/28 11:55:43;;;;;;;32.10;9.00;;;;;;;16.02;73.04;98229.61;106047;1262;98631;-88
2024/03/28 11:58:30;;;;;;;35.70;8.60;;;;;;;16.02;73.32;98232.91;105982;1261;101365;-90
2024/03/28 12:01:18;;;;;;;35.30;9.30;;;;;;;16.03;73.71;98234.52;105958;1265;99308;-84
2024/03/28 12:04:04;;;;;;;23.50;8.30;;;;;;;16.03;73.92;98235.77;105732;1265;99020;-83
2024/03/28 12:06:50;;;;;;;33.50;8.80;;;;;;;16.03;73.85;98229.27;105658;1267;97956;-88
2024/03/28 12:09:37;;;;;;;33.60;8.50;;;;;;;16.04;73.59;98216.48;105495;1259;99580;-81
2024/03/28 12:12:23;;;;;;;40.40;9.10;;;;;;;16.04;73.47;98215.94;105663;1262;103202;-82
2024/03/28 12:15:08;;;;;;;34.20;8.50;;;;;;;16.05;73.68;98221.21;105942;1262;99138;-85
2024/03/28 12:17:57;;;;;;;25.10;8.40;;;;;;;16.06;73.52;98223.10;105689;1262;99014;-81
2024/03/28 12:20:43;;;;;;;30.90;8.30;;;;;;;16.08;73.45;98228.34;105889;1264;98801;-82
2024/03/28 12:23:30;;;;;;;35.50;8.80;;;;;;;16.09;73.48;98228.11;105576;1262;98655;-88
2024/03/28 12:26:20;;;;;;;35.30;8.30;;;;;;;16.11;73.73;98225.88;105596;1259;103463;-84
2024/03/28 12:29:05;;;;;;;36.90;8.40;;;;;;;16.12;73.77;98223.02;105680;1262;99058;-88
2024/03/28 12:32:03;;;;;;;41.20;9.80;;;;;;;16.11;73.40;98224.59;105507;1262;98774;-83
2024/03/28 12:34:52;;;;;;;26.10;7.90;;;;;;;16.12;73.71;98227.65;106014;1264;97867;-88
2024/03/28 12:37:41;;;;;;;22.70;8.10;;;;;;;16.14;74.15;98229.64;105956;1260;97923;-80
2024/03/28 12:40:32;;;;;;;31.30;8.00;;;;;;;16.16;74.21;98223.16;105881;1259;101353;-84
2024/03/28 12:43:21;;;;;;;33.60;8.60;;;;;;;16.18;73.81;98223.99;108041;1259;100503;-87
2024/03/28 12:46:06;;;;;;;36.00;9.00;;;;;;;16.19;73.79;98226.38;105940;1268;98093;-82
2024/03/28 12:48:51;;;;;;;29.60;8.50;;;;;;;16.19;73.79;98228.80;106110;1262;97986;-81
2024/03/28 12:51:37;;;;;;;42.00;11.80;;;;;;;16.17;73.37;98223.80;106179;1263;98014;-79